Relevés stations proches


LFBH - La Rochelle, Charente Maritime
Mise à jour: 14/12/2017 17:00
Nuageux
Nuageux
 Wind from O
Vent: O 50 km/h, Rafale: 78 km/h
Température: 10°C
Refroidissement éolien: 6°C
Point de rosée: 7°C
Humidité: 82%
Baromètre: 1003 hPa
Ciel: Nuageux
Visibilité: 10 km
Détails plafond nuageux: Peu nuageux 884 m
Partiellement nuageux 1250 m
Nuageux 1585 m
2017/12/14 17:00 LFBH 141700Z AUTO 27027G42KT 9999 FEW029 SCT041 BKN052 10/07 Q1003 TEMPO 1500 TSRA BKN014CB
LFBC - Cognac, Charente
Mise à jour: 14/12/2017 17:00
Orage
Orage
 Wind from OSO
Vent: OSO 26 km/h
Température: 13°C
Point de rosée: 8°C
Humidité: 72%
Baromètre: 1008 hPa
Ciel: Orage
Visibilité: 10 km
2017/12/14 17:00 LFBC 141700Z AUTO 24014KT 210V270 9999 ///TCU 13/08 Q1008 TEMPO 4000 SHRA BECMG 26020G30KT
 
LFBU - Angoulème, Charente
Mise à jour: 14/12/2017 17:00
Orage
Orage
 Wind from OSO
Vent: OSO 22 km/h
Température: 10°C
Refroidissement éolien: 7°C
Point de rosée: 7°C
Humidité: 82%
Baromètre: 1004 hPa
Ciel: Orage
Visibilité: 10 km
Détails plafond nuageux: Peu nuageux 732 m
Couvert 945 m
2017/12/14 17:00 LFBU 141700Z AUTO 25012KT 210V270 9999 FEW024/// OVC031/// ///TCU 10/07 Q1004 TEMPO 24020G30KT 4500 SHRA BKN020CB
LFRI - La Roche sur Yon, Vendée
Mise à jour: 14/12/2017 17:00
Pluie légère, Orage
Pluie légère, Orage
 Wind from O
Vent: O 26 km/h, Rafale: 56 km/h
Température: 7°C
Refroidissement éolien: 3°C
Point de rosée: 6°C
Humidité: 93%
Baromètre: 1001 hPa
Ciel: Pluie légère
Ciel: Orage
Visibilité: 10 km
Détails plafond nuageux: Partiellement nuageux 488 m
Nuageux 640 m
Nuageux 792 m
2017/12/14 17:00 LFRI 141700Z AUTO 27014G30KT 9999 -RA SCT016/// BKN021/// BKN026/// ///CB 07/06 Q1001 TEMPO VRB30G45KT 2000 TSRA
 
LFBI - Poitiers, Vienne
Mise à jour: 14/12/2017 17:00
Nuageux
Nuageux
 Wind from OSO
Vent: OSO 24 km/h
Température: 8°C
Refroidissement éolien: 4°C
Point de rosée: 7°C
Humidité: 93%
Baromètre: 1001 hPa
Ciel: Nuageux
Visibilité: 10 km
Détails plafond nuageux: Peu nuageux 457 m
Partiellement nuageux 853 m
Nuageux 1768 m
2017/12/14 17:00 LFBI 141700Z AUTO 24013KT 9999 FEW015 SCT028 BKN058 08/07 Q1001 TEMPO 24025G40KT 1500 TSRA BKN014CB
LFRS - Nantes, Loire Atlantique
Mise à jour: 14/12/2017 17:00
Pluie légère, Orage
Pluie légère, Orage
 Wind from O
Vent: O 22 km/h
Température: 7°C
Refroidissement éolien: 4°C
Point de rosée: 6°C
Humidité: 93%
Baromètre: 1000 hPa
Ciel: Pluie légère
Ciel: Orage
Visibilité: 10 km
Détails plafond nuageux: Peu nuageux 579 m
Partiellement nuageux 732 m
Nuageux 914 m
2017/12/14 17:00 LFRS 141700Z AUTO 27012KT 9999 -RA FEW019/// SCT024/// BKN030/// ///CB 07/06 Q1000 TEMPO 24020G35KT 2500 SHRA
 
LFBD - Bordeaux, Gironde
Mise à jour: 14/12/2017 17:00
Pluie légère, Orage
Pluie légère, Orage
 Wind from OSO
Vent: OSO 20 km/h
Température: 12°C
Point de rosée: 9°C
Humidité: 82%
Baromètre: 1007 hPa
Ciel: Pluie légère
Ciel: Orage
Visibilité: 10 km
Détails plafond nuageux: Nuageux 853 m
Nuageux 1097 m
Nuageux 1311 m
2017/12/14 17:00 LFBD 141700Z AUTO 24011KT 9999 -RA BKN028/// BKN036/// BKN043/// ///CB 12/09 Q1007 TEMPO 24020G35KT 4500 SHRA BKN014 BKN020TCU
LFBL - Limoges, Haute Vienne
Mise à jour: 14/12/2017 17:00
Orage
Orage
 Wind from OSO
Vent: OSO 28 km/h, Rafale: 50 km/h
Température: 7°C
Refroidissement éolien: 3°C
Point de rosée: 6°C
Humidité: 93%
Baromètre: 1003 hPa
Ciel: Orage
Visibilité: 10 km
Détails plafond nuageux: Couvert 488 m
2017/12/14 17:00 LFBL 141700Z AUTO 24015G27KT 210V270 9999 OVC016/// ///TCU 07/06 Q1003 BECMG 4000 RA OVC006